createdAt,value
2018-03-25T00:01:03.904Z,29.77
2018-03-25T00:03:31.454Z,28.97
2018-03-25T00:05:59.043Z,28.60
2018-03-25T00:08:26.562Z,28.77
2018-03-25T00:10:54.167Z,29.20
2018-03-25T00:13:21.751Z,29.20
2018-03-25T00:15:49.344Z,28.77
2018-03-25T00:18:16.951Z,30.63
2018-03-25T00:20:44.612Z,30.47
2018-03-25T00:23:12.210Z,30.47
2018-03-25T00:25:39.939Z,29.83
2018-03-25T00:28:07.498Z,30.10
2018-03-25T00:30:35.025Z,29.60
2018-03-25T00:33:02.547Z,30.43
2018-03-25T00:35:30.074Z,30.53
2018-03-25T00:37:57.606Z,30.33
2018-03-25T00:40:25.194Z,29.90
2018-03-25T00:42:52.758Z,32.43
2018-03-25T00:45:20.283Z,30.00
2018-03-25T00:47:47.805Z,29.37
2018-03-25T00:50:15.434Z,29.83
2018-03-25T00:52:42.963Z,30.70
2018-03-25T00:55:10.494Z,30.13
2018-03-25T00:57:38.019Z,29.37
2018-03-25T01:00:05.572Z,29.87
2018-03-25T01:02:33.134Z,32.20
2018-03-25T01:05:00.696Z,34.27
2018-03-25T01:07:28.232Z,30.73
2018-03-25T01:09:55.776Z,33.07
2018-03-25T01:12:23.302Z,32.60
2018-03-25T01:14:50.821Z,31.77
2018-03-25T01:17:18.385Z,33.30
2018-03-25T01:19:45.911Z,33.07
2018-03-25T01:22:13.437Z,33.43
2018-03-25T01:24:41.070Z,33.27
2018-03-25T01:27:08.584Z,31.70
2018-03-25T01:29:36.193Z,34.07
2018-03-25T01:32:03.746Z,31.30
2018-03-25T01:34:31.278Z,32.17
2018-03-25T01:36:58.811Z,33.47
2018-03-25T01:39:26.349Z,33.93
2018-03-25T01:41:53.991Z,34.87
2018-03-25T01:44:21.532Z,32.30
2018-03-25T01:46:49.096Z,33.93
2018-03-25T01:49:16.673Z,35.50
2018-03-25T01:51:44.197Z,34.53
2018-03-25T01:54:11.792Z,35.23
2018-03-25T01:56:39.318Z,36.03
2018-03-25T01:59:06.846Z,35.00
2018-03-25T02:01:34.385Z,34.17
2018-03-25T02:04:01.919Z,36.93
2018-03-25T02:06:29.489Z,33.97
2018-03-25T02:08:57.050Z,35.00
2018-03-25T02:11:24.591Z,35.73
2018-03-25T02:13:52.148Z,35.30
2018-03-25T02:16:19.664Z,34.90
2018-03-25T02:18:47.191Z,33.97
2018-03-25T02:21:14.713Z,35.67
2018-03-25T02:23:42.253Z,35.40
2018-03-25T02:26:09.867Z,34.67
2018-03-25T02:28:37.393Z,35.87
2018-03-25T02:31:04.926Z,34.43
2018-03-25T02:33:32.458Z,36.93
2018-03-25T02:35:59.989Z,36.77
2018-03-25T02:38:27.509Z,35.87
2018-03-25T02:40:55.125Z,37.43
2018-03-25T02:43:22.660Z,38.53
2018-03-25T02:45:50.193Z,36.37
2018-03-25T02:48:17.718Z,38.07
2018-03-25T02:50:45.242Z,37.80
2018-03-25T02:53:12.773Z,37.73
2018-03-25T02:55:40.383Z,35.57
2018-03-25T02:58:07.953Z,37.10
2018-03-25T03:00:35.477Z,35.47
2018-03-25T03:03:03.006Z,36.77
2018-03-25T03:05:30.628Z,35.90
2018-03-25T03:07:58.179Z,35.00
2018-03-25T03:10:25.749Z,36.20
2018-03-25T03:12:53.276Z,35.93
2018-03-25T03:15:20.793Z,37.30
2018-03-25T03:17:48.433Z,37.47
2018-03-25T03:20:16.091Z,35.50
2018-03-25T03:22:43.616Z,35.80
2018-03-25T03:25:11.146Z,36.40
2018-03-25T03:27:38.695Z,37.53
2018-03-25T03:30:06.225Z,37.33
2018-03-25T03:32:33.790Z,38.73
2018-03-25T03:35:01.313Z,36.40
2018-03-25T03:37:28.843Z,39.30
2018-03-25T03:39:56.469Z,36.07
2018-03-25T03:42:24.029Z,36.50
2018-03-25T03:44:51.559Z,37.47
2018-03-25T03:47:19.082Z,36.70
2018-03-25T03:49:46.605Z,36.20
2018-03-25T03:52:14.129Z,36.43
2018-03-25T03:54:41.649Z,36.77
2018-03-25T03:57:09.289Z,36.07
2018-03-25T03:59:36.815Z,37.90
2018-03-25T04:02:04.338Z,37.50
2018-03-25T04:04:31.862Z,36.57
2018-03-25T04:06:59.391Z,36.50
2018-03-25T04:09:26.914Z,36.13
2018-03-25T04:11:54.475Z,35.77
2018-03-25T04:14:22.100Z,37.13
2018-03-25T04:16:49.631Z,36.20
2018-03-25T04:19:17.149Z,36.27
2018-03-25T04:21:44.677Z,34.40
2018-03-25T04:24:12.207Z,36.07
2018-03-25T04:26:39.732Z,36.10
2018-03-25T04:29:07.326Z,35.47
2018-03-25T04:31:34.849Z,36.83
2018-03-25T04:34:02.377Z,35.10
2018-03-25T04:36:29.907Z,36.17
2018-03-25T04:38:57.430Z,37.77
2018-03-25T04:41:25.052Z,37.97
2018-03-25T04:43:52.577Z,36.87
2018-03-25T04:46:20.098Z,36.30
2018-03-25T04:48:47.634Z,36.00
2018-03-25T04:51:15.158Z,35.10
2018-03-25T04:53:42.714Z,38.07
2018-03-25T04:56:10.241Z,35.50
2018-03-25T04:58:37.770Z,35.07
2018-03-25T05:01:05.331Z,34.80
2018-03-25T05:03:32.890Z,33.70
2018-03-25T05:06:00.446Z,35.80
2018-03-25T05:08:27.977Z,35.80
2018-03-25T05:10:55.503Z,35.70
2018-03-25T05:13:23.023Z,35.43
2018-03-25T05:15:50.559Z,34.27
2018-03-25T05:18:18.087Z,33.67
2018-03-25T05:20:45.605Z,35.83
2018-03-25T05:23:13.135Z,36.73
2018-03-25T05:25:40.653Z,33.60
2018-03-25T05:28:08.287Z,34.40
2018-03-25T05:30:35.809Z,33.77
2018-03-25T05:33:03.335Z,32.20
2018-03-25T05:35:30.864Z,32.80
2018-03-25T05:37:58.390Z,33.77
2018-03-25T05:40:25.910Z,34.30
2018-03-25T05:42:53.444Z,33.97
2018-03-25T05:45:21.107Z,33.40
2018-03-25T05:47:48.663Z,33.13
2018-03-25T05:50:16.219Z,33.13
2018-03-25T05:52:43.749Z,31.13
2018-03-25T05:55:11.272Z,32.13
2018-03-25T05:57:38.802Z,32.07
2018-03-25T06:00:06.335Z,30.13
2018-03-25T06:02:33.949Z,31.67
2018-03-25T06:05:01.477Z,30.40
2018-03-25T06:07:29.005Z,31.63
2018-03-25T06:09:56.604Z,31.53
2018-03-25T06:12:24.125Z,32.37
2018-03-25T06:14:51.646Z,30.90
2018-03-25T06:17:19.179Z,31.80
2018-03-25T06:19:46.740Z,31.50
2018-03-25T06:22:14.266Z,32.10
2018-03-25T06:24:41.784Z,29.93
2018-03-25T06:27:09.303Z,30.13
2018-03-25T06:29:36.833Z,29.57
2018-03-25T06:32:04.362Z,28.30
2018-03-25T06:34:31.898Z,30.73
2018-03-25T06:36:59.422Z,29.03
2018-03-25T06:39:26.943Z,29.77
2018-03-25T06:41:54.467Z,30.20
2018-03-25T06:44:22.035Z,29.93
2018-03-25T06:46:49.567Z,30.80
2018-03-25T06:49:17.091Z,30.60
2018-03-25T06:51:44.629Z,30.30
2018-03-25T06:54:12.271Z,30.20
2018-03-25T06:56:39.805Z,30.50
2018-03-25T06:59:07.363Z,31.30
2018-03-25T07:01:34.882Z,29.50
2018-03-25T07:04:02.411Z,30.80
2018-03-25T07:06:29.938Z,28.20
2018-03-25T07:08:57.456Z,28.07
2018-03-25T07:11:25.001Z,28.93
2018-03-25T07:13:52.686Z,28.87
2018-03-25T07:16:20.215Z,29.97
2018-03-25T07:18:47.773Z,29.20
2018-03-25T07:21:15.299Z,29.40
2018-03-25T07:23:42.818Z,28.43
2018-03-25T07:26:10.335Z,27.07
2018-03-25T07:28:37.908Z,28.97
2018-03-25T07:31:05.447Z,27.53
2018-03-25T07:33:33.567Z,28.30
2018-03-25T07:36:01.105Z,27.53
2018-03-25T07:38:28.660Z,27.97
2018-03-25T07:40:56.186Z,28.50
2018-03-25T07:43:24.146Z,27.20
2018-03-25T07:45:51.670Z,27.10
2018-03-25T07:48:19.197Z,26.87
2018-03-25T07:50:46.767Z,28.77
2018-03-25T07:53:14.305Z,27.97
2018-03-25T07:55:41.824Z,28.03
2018-03-25T07:58:09.355Z,28.37
2018-03-25T08:00:36.881Z,28.00
2018-03-25T08:03:04.465Z,28.87
2018-03-25T08:05:31.993Z,29.07
2018-03-25T08:07:59.521Z,29.10
2018-03-25T08:10:27.049Z,27.93
2018-03-25T08:12:54.568Z,28.33
2018-03-25T08:15:22.166Z,28.80
2018-03-25T08:17:49.726Z,28.30
2018-03-25T08:20:17.258Z,29.40
2018-03-25T08:22:44.787Z,27.40
2018-03-25T08:25:12.319Z,26.87
2018-03-25T08:27:39.964Z,27.93
2018-03-25T08:30:07.523Z,27.43
2018-03-25T08:32:35.106Z,28.33
2018-03-25T08:35:02.657Z,27.90
2018-03-25T08:37:30.175Z,28.70
2018-03-25T08:39:57.707Z,28.57
2018-03-25T08:42:25.245Z,27.80
2018-03-25T08:44:52.787Z,27.83
2018-03-25T08:47:20.313Z,27.77
2018-03-25T08:49:47.842Z,27.53
2018-03-25T08:52:15.403Z,26.87
2018-03-25T08:54:42.954Z,26.57
2018-03-25T08:57:10.479Z,26.70
2018-03-25T08:59:38.011Z,26.73
2018-03-25T09:02:05.601Z,26.23
2018-03-25T09:04:33.165Z,26.30
2018-03-25T09:07:00.689Z,25.73
2018-03-25T09:09:28.293Z,26.27
2018-03-25T09:11:55.901Z,26.00
2018-03-25T09:14:23.443Z,25.17
2018-03-25T09:16:50.984Z,26.00
2018-03-25T09:19:18.626Z,26.20
2018-03-25T09:21:46.356Z,27.57
2018-03-25T09:24:13.903Z,26.33
2018-03-25T09:26:41.473Z,26.77
2018-03-25T09:29:09.005Z,25.93
2018-03-25T09:31:36.542Z,27.10
2018-03-25T09:34:04.083Z,26.17
2018-03-25T09:36:31.648Z,25.87
2018-03-25T09:38:59.173Z,27.17
2018-03-25T09:41:26.696Z,27.53
2018-03-25T09:43:54.226Z,28.77
2018-03-25T09:46:21.787Z,28.20
2018-03-25T09:48:49.308Z,28.00
2018-03-25T09:51:16.837Z,27.23
2018-03-25T09:53:44.362Z,27.17
2018-03-25T09:56:11.885Z,27.93
2018-03-25T09:58:39.423Z,28.10
2018-03-25T10:01:12.466Z,28.17
2018-03-25T10:03:40.000Z,29.10
2018-03-25T10:06:07.538Z,27.53
2018-03-25T10:08:35.087Z,29.13
2018-03-25T10:11:02.636Z,28.43
2018-03-25T10:13:30.265Z,28.37
2018-03-25T10:15:57.825Z,29.37
2018-03-25T10:18:25.356Z,28.70
2018-03-25T10:20:52.945Z,29.13
2018-03-25T10:23:20.504Z,27.90
2018-03-25T10:25:48.921Z,29.87
2018-03-25T10:28:16.456Z,29.90
2018-03-25T10:30:43.978Z,27.87
2018-03-25T10:33:11.532Z,29.03
2018-03-25T10:35:39.057Z,28.00
2018-03-25T10:38:06.608Z,28.53
2018-03-25T10:40:34.142Z,29.40
2018-03-25T10:43:01.702Z,28.90
2018-03-25T10:45:29.232Z,27.87
2018-03-25T10:47:56.763Z,28.07
2018-03-25T10:50:24.309Z,28.67
2018-03-25T10:52:51.842Z,28.33
2018-03-25T10:55:19.371Z,28.37
2018-03-25T10:57:46.894Z,29.83
2018-03-25T11:00:14.417Z,30.13
2018-03-25T11:02:41.946Z,31.10
2018-03-25T11:05:09.481Z,30.90
2018-03-25T11:07:37.028Z,30.60
2018-03-25T11:10:04.555Z,29.53
2018-03-25T11:12:32.088Z,30.57
2018-03-25T11:14:59.612Z,30.97
2018-03-25T11:17:27.135Z,31.07
2018-03-25T11:19:54.658Z,31.60
2018-03-25T11:22:22.190Z,32.00
2018-03-25T11:24:49.721Z,31.17
2018-03-25T11:27:17.254Z,33.70
2018-03-25T11:29:44.793Z,31.87
2018-03-25T11:32:12.325Z,31.37
2018-03-25T11:34:39.860Z,29.67
2018-03-25T11:37:07.394Z,29.57
2018-03-25T11:39:34.935Z,30.60
2018-03-25T11:42:02.463Z,30.37
2018-03-25T11:44:29.986Z,31.50
2018-03-25T11:46:57.513Z,31.80
2018-03-25T11:49:25.038Z,32.57
2018-03-25T11:51:52.560Z,32.83
2018-03-25T11:54:20.098Z,33.40
2018-03-25T11:56:47.637Z,32.47
2018-03-25T11:59:15.169Z,31.40
2018-03-25T12:01:42.698Z,31.73
2018-03-25T12:04:10.226Z,31.43
2018-03-25T12:06:37.755Z,32.77
2018-03-25T12:09:05.282Z,33.20
2018-03-25T12:11:32.823Z,32.67
2018-03-25T12:14:00.375Z,34.30
2018-03-25T12:16:27.943Z,33.53
2018-03-25T12:18:55.506Z,33.27
2018-03-25T12:21:23.010Z,33.60
2018-03-25T12:23:50.554Z,32.03
2018-03-25T12:26:18.081Z,33.40
2018-03-25T12:28:45.613Z,32.50
2018-03-25T12:31:13.137Z,33.27
2018-03-25T12:33:40.669Z,31.83
2018-03-25T12:36:08.198Z,33.57
2018-03-25T12:38:35.738Z,33.53
2018-03-25T12:41:03.290Z,31.33
2018-03-25T12:43:30.838Z,31.10
2018-03-25T12:45:58.356Z,32.17
2018-03-25T12:48:25.887Z,33.17
2018-03-25T12:50:53.426Z,32.37
2018-03-25T12:53:20.955Z,31.70
2018-03-25T12:55:48.493Z,32.07
2018-03-25T12:58:16.025Z,30.67
2018-03-25T13:00:43.549Z,31.23
2018-03-25T13:03:11.071Z,31.73
2018-03-25T13:05:38.598Z,31.17
2018-03-25T13:08:06.130Z,30.53
2018-03-25T13:10:33.667Z,33.43
2018-03-25T13:13:01.255Z,31.30
2018-03-25T13:15:28.810Z,31.93
2018-03-25T13:17:56.344Z,31.40
2018-03-25T13:20:23.872Z,31.80
2018-03-25T13:22:51.394Z,31.47
2018-03-25T13:25:18.927Z,31.33
2018-03-25T13:27:46.467Z,31.87
2018-03-25T13:30:14.018Z,31.53
2018-03-25T13:32:41.713Z,30.63
2018-03-25T13:35:09.260Z,30.40
2018-03-25T13:37:36.789Z,32.93
2018-03-25T13:40:04.334Z,30.80
2018-03-25T13:42:31.874Z,31.63
2018-03-25T13:44:59.399Z,32.27
2018-03-25T13:47:26.945Z,31.90
2018-03-25T13:49:54.485Z,31.23
2018-03-25T13:52:22.051Z,32.53
2018-03-25T13:54:49.610Z,31.47
2018-03-25T13:57:17.148Z,30.10
2018-03-25T13:59:44.689Z,31.83
2018-03-25T14:02:12.226Z,29.57
2018-03-25T14:04:39.746Z,31.07
2018-03-25T14:07:07.279Z,30.43
2018-03-25T14:09:34.800Z,32.20
2018-03-25T14:12:02.322Z,31.80
2018-03-25T14:14:29.881Z,31.60
2018-03-25T14:16:57.449Z,29.40
2018-03-25T14:19:25.022Z,31.30
2018-03-25T14:21:52.566Z,31.53
2018-03-25T14:24:20.095Z,30.23
2018-03-25T14:26:47.619Z,31.50
2018-03-25T14:29:15.143Z,29.47
2018-03-25T14:31:42.670Z,31.07
2018-03-25T14:34:10.204Z,31.30
2018-03-25T14:36:37.747Z,31.10
2018-03-25T14:39:05.306Z,31.40
2018-03-25T14:41:32.856Z,29.63
2018-03-25T14:44:00.435Z,28.27
2018-03-25T14:46:28.024Z,29.77
2018-03-25T14:48:55.577Z,29.67
2018-03-25T14:51:23.119Z,29.47
2018-03-25T14:53:50.655Z,27.93
2018-03-25T14:56:18.340Z,30.50
2018-03-25T14:58:45.910Z,28.30
2018-03-25T15:01:13.450Z,29.17
2018-03-25T15:03:40.987Z,29.93
2018-03-25T15:06:08.547Z,29.57
2018-03-25T15:08:36.080Z,29.03
2018-03-25T15:11:03.628Z,29.97
2018-03-25T15:13:31.163Z,28.70
2018-03-25T15:15:58.695Z,29.37
2018-03-25T15:18:26.231Z,29.17
2018-03-25T15:20:53.765Z,27.80
2018-03-25T15:23:21.294Z,28.27
2018-03-25T15:25:48.824Z,28.57
2018-03-25T15:28:16.355Z,28.50
2018-03-25T15:30:43.893Z,27.50
2018-03-25T15:33:11.428Z,28.37
2018-03-25T15:35:38.997Z,29.08
2018-03-25T15:38:06.601Z,28.13
2018-03-25T15:40:34.080Z,27.83
2018-03-25T15:43:01.605Z,27.50
2018-03-25T15:45:29.130Z,31.05
2018-03-25T15:47:56.651Z,28.47
2018-03-25T15:50:24.173Z,28.30
2018-03-25T15:52:51.698Z,29.77
2018-03-25T15:55:19.228Z,27.67
2018-03-25T15:57:46.764Z,29.87
2018-03-25T16:00:14.367Z,29.43
2018-03-25T16:02:41.912Z,30.33
2018-03-25T16:05:09.428Z,29.30
2018-03-25T16:07:36.962Z,31.03
2018-03-25T16:10:04.494Z,29.30
2018-03-25T16:12:32.036Z,31.07
2018-03-25T16:14:59.568Z,30.03
2018-03-25T16:17:27.100Z,30.80
2018-03-25T16:19:54.627Z,29.67
2018-03-25T16:22:22.185Z,31.23
2018-03-25T16:24:49.714Z,31.43
2018-03-25T16:27:17.236Z,31.10
2018-03-25T16:29:44.765Z,31.10
2018-03-25T16:32:12.281Z,29.83
2018-03-25T16:34:39.845Z,30.57
2018-03-25T16:37:07.375Z,31.83
2018-03-25T16:39:34.897Z,30.37
2018-03-25T16:42:02.432Z,29.77
2018-03-25T16:44:29.957Z,31.50
2018-03-25T16:46:57.488Z,29.50
2018-03-25T16:49:25.074Z,31.70
2018-03-25T16:51:52.597Z,29.70
2018-03-25T16:54:20.118Z,29.80
2018-03-25T16:56:47.649Z,29.70
2018-03-25T16:59:15.174Z,30.30
2018-03-25T17:01:42.704Z,27.87
2018-03-25T17:04:10.230Z,27.33
2018-03-25T17:06:37.752Z,27.60
2018-03-25T17:09:05.276Z,27.37
2018-03-25T17:11:32.808Z,27.97
2018-03-25T17:14:00.330Z,27.07
2018-03-25T17:16:27.850Z,28.90
2018-03-25T17:18:55.486Z,28.70
2018-03-25T17:21:23.041Z,29.00
2018-03-25T17:23:50.577Z,28.20
2018-03-25T17:26:18.118Z,26.73
2018-03-25T17:28:45.654Z,28.27
2018-03-25T17:31:13.186Z,25.30
2018-03-25T17:33:40.713Z,25.90
2018-03-25T17:36:08.298Z,27.57
2018-03-25T17:38:35.846Z,26.10
2018-03-25T17:41:03.392Z,25.50
2018-03-25T17:43:30.913Z,25.70
2018-03-25T17:45:58.441Z,26.13
2018-03-25T17:48:25.967Z,26.90
2018-03-25T17:50:53.492Z,26.07
2018-03-25T17:53:21.077Z,26.47
2018-03-25T17:55:48.702Z,26.27
2018-03-25T17:58:16.241Z,26.77
2018-03-25T18:00:43.778Z,27.80
2018-03-25T18:03:11.318Z,28.00
2018-03-25T18:05:38.913Z,29.97
2018-03-25T18:08:06.409Z,28.60
2018-03-25T18:10:34.001Z,29.27
2018-03-25T18:13:01.568Z,28.50
2018-03-25T18:15:29.106Z,30.07
2018-03-25T18:17:56.640Z,28.90
2018-03-25T18:20:24.197Z,29.50
2018-03-25T18:22:51.766Z,30.67
2018-03-25T18:25:19.331Z,30.30
2018-03-25T18:27:46.875Z,31.27
2018-03-25T18:30:14.426Z,31.70
2018-03-25T18:32:41.961Z,31.30
2018-03-25T18:35:09.477Z,31.97
2018-03-25T18:37:36.999Z,34.13
2018-03-25T18:40:04.526Z,33.40
2018-03-25T18:42:32.186Z,34.90
2018-03-25T18:44:59.757Z,34.93
2018-03-25T18:47:27.310Z,34.47
2018-03-25T18:49:54.878Z,35.47
2018-03-25T18:52:22.442Z,34.97
2018-03-25T18:54:49.969Z,35.27
2018-03-25T18:57:17.504Z,33.63
2018-03-25T18:59:45.023Z,34.60
2018-03-25T19:02:12.670Z,35.53
2018-03-25T19:04:40.214Z,34.67
2018-03-25T19:07:07.753Z,34.67
2018-03-25T19:09:35.288Z,34.47
2018-03-25T19:12:02.821Z,34.00
2018-03-25T19:14:30.359Z,35.90
2018-03-25T19:16:57.887Z,34.57
2018-03-25T19:19:25.408Z,34.83
2018-03-25T19:21:52.969Z,34.63
2018-03-25T19:24:20.546Z,35.77
2018-03-25T19:26:48.088Z,34.17
2018-03-25T19:29:15.624Z,34.57
2018-03-25T19:31:43.141Z,34.03
2018-03-25T19:34:10.667Z,34.13
2018-03-25T19:36:38.213Z,36.17
2018-03-25T19:39:05.821Z,34.53
2018-03-25T19:41:33.359Z,34.67
2018-03-25T19:44:00.889Z,34.80
2018-03-25T19:46:28.418Z,36.07
2018-03-25T19:48:55.966Z,34.77
2018-03-25T19:51:23.493Z,35.47
2018-03-25T19:53:51.030Z,35.20
2018-03-25T19:56:18.573Z,32.70
2018-03-25T19:58:46.122Z,34.33
2018-03-25T20:01:13.659Z,35.30
2018-03-25T20:03:41.268Z,34.83
2018-03-25T20:06:08.780Z,33.40
2018-03-25T20:08:36.315Z,33.80
2018-03-25T20:11:03.871Z,34.57
2018-03-25T20:13:31.432Z,33.73
2018-03-25T20:15:58.952Z,33.83
2018-03-25T20:18:27.370Z,34.00
2018-03-25T20:20:54.898Z,36.00
2018-03-25T20:23:22.425Z,34.47
2018-03-25T20:25:50.009Z,36.13
2018-03-25T20:28:17.537Z,34.00
2018-03-25T20:30:45.066Z,34.37
2018-03-25T20:33:12.593Z,35.27
2018-03-25T20:35:40.119Z,35.13
2018-03-25T20:38:07.647Z,33.33
2018-03-25T20:40:35.178Z,33.43
2018-03-25T20:43:02.706Z,34.00
2018-03-25T20:45:30.242Z,32.37
2018-03-25T20:47:57.782Z,31.87
2018-03-25T20:50:25.308Z,31.93
2018-03-25T20:52:52.856Z,30.13
2018-03-25T20:55:20.390Z,29.13
2018-03-25T20:57:47.921Z,29.70
2018-03-25T21:00:15.473Z,29.30
2018-03-25T21:02:43.012Z,30.57
2018-03-25T21:05:10.538Z,29.90
2018-03-25T21:07:38.077Z,29.10
2018-03-25T21:10:05.620Z,29.60
2018-03-25T21:12:33.147Z,28.43
2018-03-25T21:15:00.670Z,26.70
2018-03-25T21:17:28.193Z,26.07
2018-03-25T21:19:55.727Z,24.43
2018-03-25T21:22:23.249Z,24.67
2018-03-25T21:24:50.769Z,25.33
2018-03-25T21:27:18.296Z,24.07
2018-03-25T21:29:45.827Z,25.63
2018-03-25T21:32:13.344Z,26.20
2018-03-25T21:34:40.874Z,28.03
2018-03-25T21:37:08.394Z,26.93
2018-03-25T21:39:35.923Z,26.73
2018-03-25T21:42:03.456Z,25.57
2018-03-25T21:44:30.984Z,24.93
2018-03-25T21:46:58.513Z,26.13
2018-03-25T21:49:26.035Z,26.50
2018-03-25T21:51:53.617Z,26.23
2018-03-25T21:54:21.140Z,26.77
2018-03-25T21:56:48.680Z,27.37
2018-03-25T21:59:16.214Z,26.27
2018-03-25T22:01:43.733Z,28.13
2018-03-25T22:04:11.250Z,28.83
2018-03-25T22:06:38.762Z,27.17
2018-03-25T22:09:06.286Z,27.53
2018-03-25T22:11:33.820Z,28.27
2018-03-25T22:14:01.411Z,28.10
2018-03-25T22:16:28.949Z,29.93
2018-03-25T22:19:00.310Z,28.80
2018-03-25T22:21:27.846Z,28.77
2018-03-25T22:23:55.385Z,31.13
2018-03-25T22:26:22.896Z,31.87
2018-03-25T22:28:50.430Z,30.63
2018-03-25T22:31:17.962Z,31.30
2018-03-25T22:33:45.486Z,32.70
2018-03-25T22:36:13.007Z,31.33
2018-03-25T22:38:40.586Z,31.83
2018-03-25T22:41:08.110Z,33.07
2018-03-25T22:43:35.630Z,31.40
2018-03-25T22:46:03.150Z,30.93
2018-03-25T22:48:30.676Z,33.53
2018-03-25T22:50:58.202Z,30.77
2018-03-25T22:53:25.724Z,31.90
2018-03-25T22:55:53.254Z,30.80
2018-03-25T22:58:20.783Z,32.03
2018-03-25T23:00:48.297Z,31.00
2018-03-25T23:03:15.826Z,31.37
2018-03-25T23:05:43.358Z,30.90
2018-03-25T23:08:10.884Z,30.40
2018-03-25T23:10:38.411Z,31.93
2018-03-25T23:13:05.935Z,31.17
2018-03-25T23:15:33.454Z,30.67
2018-03-25T23:18:00.973Z,30.90
2018-03-25T23:20:28.512Z,31.60
2018-03-25T23:22:56.064Z,31.47
2018-03-25T23:25:23.609Z,32.60
2018-03-25T23:27:51.142Z,32.13
2018-03-25T23:30:18.684Z,30.30
2018-03-25T23:32:46.209Z,31.23
2018-03-25T23:35:13.735Z,31.00
2018-03-25T23:37:41.261Z,30.73
2018-03-25T23:40:08.792Z,31.47
2018-03-25T23:42:36.304Z,30.57
2018-03-25T23:45:03.842Z,33.60
2018-03-25T23:47:31.366Z,31.33
2018-03-25T23:49:58.885Z,32.10
2018-03-25T23:52:26.416Z,31.13
2018-03-25T23:54:53.941Z,30.83
2018-03-25T23:57:21.485Z,29.77
2018-03-25T23:59:49.018Z,30.73
